sensor_id;sensor_type;location;lat;lon;timestamp;P1;durP1;ratioP1;P2;durP2;ratioP2
60006;SDS011;45863;50.336;3.536;2023-04-24T00:02:16;35.58;;;18.50;;
60006;SDS011;45863;50.336;3.536;2023-04-24T00:04:41;32.03;;;17.90;;
60006;SDS011;45863;50.336;3.536;2023-04-24T00:07:09;30.67;;;14.98;;
60006;SDS011;45863;50.336;3.536;2023-04-24T00:09:35;29.63;;;13.68;;
60006;SDS011;45863;50.336;3.536;2023-04-24T00:12:00;32.70;;;16.00;;
60006;SDS011;45863;50.336;3.536;2023-04-24T00:14:27;29.25;;;14.48;;
60006;SDS011;45863;50.336;3.536;2023-04-24T00:16:52;30.90;;;16.65;;
60006;SDS011;45863;50.336;3.536;2023-04-24T00:19:18;28.00;;;15.10;;
60006;SDS011;45863;50.336;3.536;2023-04-24T00:21:46;33.97;;;18.17;;
60006;SDS011;45863;50.336;3.536;2023-04-24T00:24:11;33.75;;;16.15;;
60006;SDS011;45863;50.336;3.536;2023-04-24T00:26:36;30.00;;;15.48;;
60006;SDS011;45863;50.336;3.536;2023-04-24T00:29:02;28.38;;;14.68;;
60006;SDS011;45863;50.336;3.536;2023-04-24T00:31:27;43.35;;;14.90;;
60006;SDS011;45863;50.336;3.536;2023-04-24T00:33:52;35.25;;;16.58;;
60006;SDS011;45863;50.336;3.536;2023-04-24T00:36:17;25.38;;;13.00;;
60006;SDS011;45863;50.336;3.536;2023-04-24T00:38:45;31.83;;;16.45;;
60006;SDS011;45863;50.336;3.536;2023-04-24T00:41:10;23.52;;;13.32;;
60006;SDS011;45863;50.336;3.536;2023-04-24T00:43:36;22.20;;;10.73;;
60006;SDS011;45863;50.336;3.536;2023-04-24T00:46:01;27.00;;;13.03;;
60006;SDS011;45863;50.336;3.536;2023-04-24T00:48:26;24.90;;;13.32;;
60006;SDS011;45863;50.336;3.536;2023-04-24T00:51:01;22.83;;;13.10;;
60006;SDS011;45863;50.336;3.536;2023-04-24T00:53:29;28.45;;;12.93;;
60006;SDS011;45863;50.336;3.536;2023-04-24T00:55:55;24.52;;;14.55;;
60006;SDS011;45863;50.336;3.536;2023-04-24T00:58:20;29.42;;;12.98;;
60006;SDS011;45863;50.336;3.536;2023-04-24T01:00:46;28.98;;;13.75;;
60006;SDS011;45863;50.336;3.536;2023-04-24T01:03:12;27.50;;;16.63;;
60006;SDS011;45863;50.336;3.536;2023-04-24T01:05:38;24.55;;;13.32;;
60006;SDS011;45863;50.336;3.536;2023-04-24T01:08:03;27.88;;;13.40;;
60006;SDS011;45863;50.336;3.536;2023-04-24T01:10:29;31.52;;;15.25;;
60006;SDS011;45863;50.336;3.536;2023-04-24T01:12:54;23.60;;;12.27;;
60006;SDS011;45863;50.336;3.536;2023-04-24T01:15:20;28.13;;;13.38;;
60006;SDS011;45863;50.336;3.536;2023-04-24T01:17:45;25.92;;;14.38;;
60006;SDS011;45863;50.336;3.536;2023-04-24T01:20:11;31.20;;;14.98;;
60006;SDS011;45863;50.336;3.536;2023-04-24T01:22:37;26.67;;;14.57;;
60006;SDS011;45863;50.336;3.536;2023-04-24T01:25:03;21.05;;;10.68;;
60006;SDS011;45863;50.336;3.536;2023-04-24T01:27:28;23.02;;;12.13;;
60006;SDS011;45863;50.336;3.536;2023-04-24T01:29:53;26.40;;;12.95;;
60006;SDS011;45863;50.336;3.536;2023-04-24T01:32:19;17.67;;;9.93;;
60006;SDS011;45863;50.336;3.536;2023-04-24T01:34:45;19.15;;;8.82;;
60006;SDS011;45863;50.336;3.536;2023-04-24T01:37:10;21.48;;;11.18;;
60006;SDS011;45863;50.336;3.536;2023-04-24T01:39:35;17.10;;;9.95;;
60006;SDS011;45863;50.336;3.536;2023-04-24T01:42:01;19.30;;;11.32;;
60006;SDS011;45863;50.336;3.536;2023-04-24T01:44:27;19.25;;;10.48;;
60006;SDS011;45863;50.336;3.536;2023-04-24T01:46:52;18.45;;;10.77;;
60006;SDS011;45863;50.336;3.536;2023-04-24T01:49:20;18.52;;;9.60;;
60006;SDS011;45863;50.336;3.536;2023-04-24T01:51:45;19.13;;;8.55;;
60006;SDS011;45863;50.336;3.536;2023-04-24T01:54:10;18.05;;;8.38;;
60006;SDS011;45863;50.336;3.536;2023-04-24T01:56:35;14.90;;;9.23;;
60006;SDS011;45863;50.336;3.536;2023-04-24T01:59:02;13.32;;;7.47;;
60006;SDS011;45863;50.336;3.536;2023-04-24T02:01:27;16.90;;;8.73;;
60006;SDS011;45863;50.336;3.536;2023-04-24T02:03:52;19.13;;;8.98;;
60006;SDS011;45863;50.336;3.536;2023-04-24T02:06:17;17.35;;;8.55;;
60006;SDS011;45863;50.336;3.536;2023-04-24T02:08:43;15.90;;;8.65;;
60006;SDS011;45863;50.336;3.536;2023-04-24T02:11:09;19.35;;;9.07;;
60006;SDS011;45863;50.336;3.536;2023-04-24T02:13:34;16.42;;;9.13;;
60006;SDS011;45863;50.336;3.536;2023-04-24T02:15:59;20.88;;;8.95;;
60006;SDS011;45863;50.336;3.536;2023-04-24T02:18:25;15.52;;;9.20;;
60006;SDS011;45863;50.336;3.536;2023-04-24T02:20:50;17.45;;;7.72;;
60006;SDS011;45863;50.336;3.536;2023-04-24T02:23:15;15.68;;;7.88;;
60006;SDS011;45863;50.336;3.536;2023-04-24T02:25:40;16.33;;;8.73;;
60006;SDS011;45863;50.336;3.536;2023-04-24T02:28:06;16.95;;;8.82;;
60006;SDS011;45863;50.336;3.536;2023-04-24T02:30:31;16.80;;;9.20;;
60006;SDS011;45863;50.336;3.536;2023-04-24T02:32:56;15.98;;;8.55;;
60006;SDS011;45863;50.336;3.536;2023-04-24T02:35:22;14.93;;;7.88;;
60006;SDS011;45863;50.336;3.536;2023-04-24T02:37:47;18.02;;;9.25;;
60006;SDS011;45863;50.336;3.536;2023-04-24T02:40:12;20.63;;;9.40;;
60006;SDS011;45863;50.336;3.536;2023-04-24T02:42:37;18.13;;;10.02;;
60006;SDS011;45863;50.336;3.536;2023-04-24T02:45:03;23.00;;;10.52;;
60006;SDS011;45863;50.336;3.536;2023-04-24T02:47:28;20.77;;;10.85;;
60006;SDS011;45863;50.336;3.536;2023-04-24T02:49:53;18.50;;;10.43;;
60006;SDS011;45863;50.336;3.536;2023-04-24T02:52:18;19.77;;;11.68;;
60006;SDS011;45863;50.336;3.536;2023-04-24T02:54:44;23.90;;;11.73;;
60006;SDS011;45863;50.336;3.536;2023-04-24T02:57:09;24.88;;;12.95;;
60006;SDS011;45863;50.336;3.536;2023-04-24T02:59:34;23.48;;;11.75;;
60006;SDS011;45863;50.336;3.536;2023-04-24T03:02:00;25.13;;;11.52;;
60006;SDS011;45863;50.336;3.536;2023-04-24T03:04:25;20.88;;;11.43;;
60006;SDS011;45863;50.336;3.536;2023-04-24T03:06:51;27.10;;;13.60;;
60006;SDS011;45863;50.336;3.536;2023-04-24T03:09:18;24.48;;;12.63;;
60006;SDS011;45863;50.336;3.536;2023-04-24T03:11:43;19.92;;;11.30;;
60006;SDS011;45863;50.336;3.536;2023-04-24T03:14:08;26.95;;;13.63;;
60006;SDS011;45863;50.336;3.536;2023-04-24T03:16:33;26.25;;;14.23;;
60006;SDS011;45863;50.336;3.536;2023-04-24T03:18:59;27.73;;;14.55;;
60006;SDS011;45863;50.336;3.536;2023-04-24T03:21:24;28.00;;;15.15;;
60006;SDS011;45863;50.336;3.536;2023-04-24T03:23:49;32.33;;;15.13;;
60006;SDS011;45863;50.336;3.536;2023-04-24T03:26:14;29.85;;;14.60;;
60006;SDS011;45863;50.336;3.536;2023-04-24T03:28:40;28.77;;;15.52;;
60006;SDS011;45863;50.336;3.536;2023-04-24T03:31:05;30.27;;;16.33;;
60006;SDS011;45863;50.336;3.536;2023-04-24T03:33:31;31.17;;;16.17;;
60006;SDS011;45863;50.336;3.536;2023-04-24T03:35:56;32.47;;;17.13;;
60006;SDS011;45863;50.336;3.536;2023-04-24T03:38:21;32.20;;;15.40;;
60006;SDS011;45863;50.336;3.536;2023-04-24T03:40:46;31.00;;;16.03;;
60006;SDS011;45863;50.336;3.536;2023-04-24T03:43:11;28.33;;;16.13;;
60006;SDS011;45863;50.336;3.536;2023-04-24T03:45:37;26.63;;;14.93;;
60006;SDS011;45863;50.336;3.536;2023-04-24T03:48:02;29.33;;;15.32;;
60006;SDS011;45863;50.336;3.536;2023-04-24T03:50:27;34.33;;;15.90;;
60006;SDS011;45863;50.336;3.536;2023-04-24T03:52:54;32.40;;;16.58;;
60006;SDS011;45863;50.336;3.536;2023-04-24T03:55:19;36.03;;;19.08;;
60006;SDS011;45863;50.336;3.536;2023-04-24T03:57:44;39.17;;;20.23;;
60006;SDS011;45863;50.336;3.536;2023-04-24T04:00:10;40.72;;;22.35;;
60006;SDS011;45863;50.336;3.536;2023-04-24T04:02:37;37.80;;;21.25;;
60006;SDS011;45863;50.336;3.536;2023-04-24T04:05:02;42.90;;;23.47;;
60006;SDS011;45863;50.336;3.536;2023-04-24T04:07:27;50.10;;;24.63;;
60006;SDS011;45863;50.336;3.536;2023-04-24T04:09:54;47.30;;;24.98;;
60006;SDS011;45863;50.336;3.536;2023-04-24T04:12:19;45.28;;;24.88;;
60006;SDS011;45863;50.336;3.536;2023-04-24T04:14:45;42.80;;;23.07;;
60006;SDS011;45863;50.336;3.536;2023-04-24T04:17:10;44.50;;;23.95;;
60006;SDS011;45863;50.336;3.536;2023-04-24T04:19:35;39.83;;;23.38;;
60006;SDS011;45863;50.336;3.536;2023-04-24T04:22:01;43.53;;;23.48;;
60006;SDS011;45863;50.336;3.536;2023-04-24T04:24:26;43.38;;;23.55;;
60006;SDS011;45863;50.336;3.536;2023-04-24T04:26:51;38.83;;;23.58;;
60006;SDS011;45863;50.336;3.536;2023-04-24T04:29:17;40.28;;;24.33;;
60006;SDS011;45863;50.336;3.536;2023-04-24T04:31:43;42.08;;;23.58;;
60006;SDS011;45863;50.336;3.536;2023-04-24T04:34:08;40.70;;;24.45;;
60006;SDS011;45863;50.336;3.536;2023-04-24T04:36:34;46.10;;;25.35;;
60006;SDS011;45863;50.336;3.536;2023-04-24T04:39:02;46.95;;;25.38;;
60006;SDS011;45863;50.336;3.536;2023-04-24T04:41:28;43.75;;;23.67;;
60006;SDS011;45863;50.336;3.536;2023-04-24T04:43:54;42.30;;;24.33;;
60006;SDS011;45863;50.336;3.536;2023-04-24T04:46:19;49.70;;;26.25;;
60006;SDS011;45863;50.336;3.536;2023-04-24T04:48:45;58.65;;;28.13;;
60006;SDS011;45863;50.336;3.536;2023-04-24T04:51:10;57.67;;;28.05;;
60006;SDS011;45863;50.336;3.536;2023-04-24T04:53:36;52.35;;;25.95;;
60006;SDS011;45863;50.336;3.536;2023-04-24T04:56:01;42.10;;;23.55;;
60006;SDS011;45863;50.336;3.536;2023-04-24T04:58:26;43.17;;;22.77;;
60006;SDS011;45863;50.336;3.536;2023-04-24T05:00:51;38.13;;;23.58;;
60006;SDS011;45863;50.336;3.536;2023-04-24T05:03:17;41.90;;;23.42;;
60006;SDS011;45863;50.336;3.536;2023-04-24T05:05:42;39.10;;;21.65;;
60006;SDS011;45863;50.336;3.536;2023-04-24T05:08:07;35.42;;;20.73;;
60006;SDS011;45863;50.336;3.536;2023-04-24T05:10:33;43.08;;;21.15;;
60006;SDS011;45863;50.336;3.536;2023-04-24T05:12:58;34.47;;;19.85;;
60006;SDS011;45863;50.336;3.536;2023-04-24T05:15:23;33.75;;;20.45;;
60006;SDS011;45863;50.336;3.536;2023-04-24T05:17:49;37.58;;;21.20;;
60006;SDS011;45863;50.336;3.536;2023-04-24T05:20:14;35.58;;;20.90;;
60006;SDS011;45863;50.336;3.536;2023-04-24T05:22:40;36.10;;;20.58;;
60006;SDS011;45863;50.336;3.536;2023-04-24T05:25:05;32.33;;;20.40;;
60006;SDS011;45863;50.336;3.536;2023-04-24T05:27:30;36.90;;;20.08;;
60006;SDS011;45863;50.336;3.536;2023-04-24T05:29:56;29.00;;;18.58;;
60006;SDS011;45863;50.336;3.536;2023-04-24T05:32:21;31.45;;;18.55;;
60006;SDS011;45863;50.336;3.536;2023-04-24T05:34:46;32.30;;;18.70;;
60006;SDS011;45863;50.336;3.536;2023-04-24T05:37:12;31.08;;;17.88;;
60006;SDS011;45863;50.336;3.536;2023-04-24T05:39:37;27.00;;;16.75;;
60006;SDS011;45863;50.336;3.536;2023-04-24T05:42:03;27.38;;;17.05;;
60006;SDS011;45863;50.336;3.536;2023-04-24T05:44:29;28.40;;;16.40;;
60006;SDS011;45863;50.336;3.536;2023-04-24T05:46:54;29.20;;;17.40;;
60006;SDS011;45863;50.336;3.536;2023-04-24T05:49:23;27.13;;;17.13;;
60006;SDS011;45863;50.336;3.536;2023-04-24T05:51:48;25.38;;;15.70;;
60006;SDS011;45863;50.336;3.536;2023-04-24T05:54:13;27.77;;;15.48;;
60006;SDS011;45863;50.336;3.536;2023-04-24T05:56:39;23.15;;;14.57;;
60006;SDS011;45863;50.336;3.536;2023-04-24T05:59:04;28.73;;;15.82;;
60006;SDS011;45863;50.336;3.536;2023-04-24T06:01:29;26.80;;;14.70;;
60006;SDS011;45863;50.336;3.536;2023-04-24T06:03:56;29.23;;;14.65;;
60006;SDS011;45863;50.336;3.536;2023-04-24T06:06:21;26.08;;;14.65;;
60006;SDS011;45863;50.336;3.536;2023-04-24T06:08:46;20.98;;;13.40;;
60006;SDS011;45863;50.336;3.536;2023-04-24T06:11:12;23.02;;;14.93;;
60006;SDS011;45863;50.336;3.536;2023-04-24T06:13:37;21.33;;;13.30;;
60006;SDS011;45863;50.336;3.536;2023-04-24T06:16:02;24.60;;;14.02;;
60006;SDS011;45863;50.336;3.536;2023-04-24T06:18:27;29.05;;;14.57;;
60006;SDS011;45863;50.336;3.536;2023-04-24T06:20:53;23.53;;;13.53;;
60006;SDS011;45863;50.336;3.536;2023-04-24T06:23:18;21.98;;;13.43;;
60006;SDS011;45863;50.336;3.536;2023-04-24T06:25:43;22.70;;;13.40;;
60006;SDS011;45863;50.336;3.536;2023-04-24T06:28:08;25.40;;;13.30;;
60006;SDS011;45863;50.336;3.536;2023-04-24T06:30:33;25.90;;;13.75;;
60006;SDS011;45863;50.336;3.536;2023-04-24T06:32:59;22.93;;;14.30;;
60006;SDS011;45863;50.336;3.536;2023-04-24T06:35:24;21.25;;;13.70;;
60006;SDS011;45863;50.336;3.536;2023-04-24T06:37:49;24.05;;;13.77;;
60006;SDS011;45863;50.336;3.536;2023-04-24T06:40:15;28.13;;;15.45;;
60006;SDS011;45863;50.336;3.536;2023-04-24T06:42:40;23.35;;;14.77;;
60006;SDS011;45863;50.336;3.536;2023-04-24T06:45:06;29.40;;;16.98;;
60006;SDS011;45863;50.336;3.536;2023-04-24T06:47:31;29.77;;;15.38;;
60006;SDS011;45863;50.336;3.536;2023-04-24T06:49:56;30.95;;;15.88;;
60006;SDS011;45863;50.336;3.536;2023-04-24T06:52:22;30.42;;;15.82;;
60006;SDS011;45863;50.336;3.536;2023-04-24T06:54:47;26.23;;;15.30;;
60006;SDS011;45863;50.336;3.536;2023-04-24T06:57:12;26.88;;;15.93;;
60006;SDS011;45863;50.336;3.536;2023-04-24T06:59:37;24.38;;;13.70;;
60006;SDS011;45863;50.336;3.536;2023-04-24T07:02:03;25.88;;;16.02;;
60006;SDS011;45863;50.336;3.536;2023-04-24T07:04:29;27.67;;;15.40;;
60006;SDS011;45863;50.336;3.536;2023-04-24T07:06:55;24.05;;;14.02;;
60006;SDS011;45863;50.336;3.536;2023-04-24T07:09:21;21.13;;;13.50;;
60006;SDS011;45863;50.336;3.536;2023-04-24T07:11:47;20.63;;;14.05;;
60006;SDS011;45863;50.336;3.536;2023-04-24T07:14:13;22.05;;;13.63;;
60006;SDS011;45863;50.336;3.536;2023-04-24T07:16:38;23.27;;;13.77;;
60006;SDS011;45863;50.336;3.536;2023-04-24T07:19:04;21.92;;;13.60;;
60006;SDS011;45863;50.336;3.536;2023-04-24T07:21:29;22.42;;;13.07;;
60006;SDS011;45863;50.336;3.536;2023-04-24T07:23:57;22.23;;;14.20;;
60006;SDS011;45863;50.336;3.536;2023-04-24T07:26:22;23.50;;;13.63;;
60006;SDS011;45863;50.336;3.536;2023-04-24T07:28:47;26.77;;;15.07;;
60006;SDS011;45863;50.336;3.536;2023-04-24T07:31:12;23.65;;;14.32;;
60006;SDS011;45863;50.336;3.536;2023-04-24T07:33:38;25.90;;;14.38;;
60006;SDS011;45863;50.336;3.536;2023-04-24T07:36:03;24.58;;;14.45;;
60006;SDS011;45863;50.336;3.536;2023-04-24T07:38:31;35.10;;;16.00;;
60006;SDS011;45863;50.336;3.536;2023-04-24T07:40:57;25.45;;;14.68;;
60006;SDS011;45863;50.336;3.536;2023-04-24T07:43:22;23.08;;;14.38;;
60006;SDS011;45863;50.336;3.536;2023-04-24T07:45:48;26.95;;;16.95;;
60006;SDS011;45863;50.336;3.536;2023-04-24T07:48:14;29.20;;;14.90;;
60006;SDS011;45863;50.336;3.536;2023-04-24T07:50:41;30.08;;;14.82;;
60006;SDS011;45863;50.336;3.536;2023-04-24T07:53:06;27.27;;;15.98;;
60006;SDS011;45863;50.336;3.536;2023-04-24T07:55:31;25.90;;;14.98;;
60006;SDS011;45863;50.336;3.536;2023-04-24T07:57:57;28.58;;;14.50;;
60006;SDS011;45863;50.336;3.536;2023-04-24T08:00:22;26.92;;;14.00;;
60006;SDS011;45863;50.336;3.536;2023-04-24T08:02:47;27.30;;;14.13;;
60006;SDS011;45863;50.336;3.536;2023-04-24T08:05:12;24.25;;;15.40;;
60006;SDS011;45863;50.336;3.536;2023-04-24T08:07:38;24.20;;;14.27;;
60006;SDS011;45863;50.336;3.536;2023-04-24T08:10:03;27.48;;;15.63;;
60006;SDS011;45863;50.336;3.536;2023-04-24T08:12:29;28.10;;;15.65;;
60006;SDS011;45863;50.336;3.536;2023-04-24T08:14:54;28.75;;;15.05;;
60006;SDS011;45863;50.336;3.536;2023-04-24T08:17:19;24.27;;;14.95;;
60006;SDS011;45863;50.336;3.536;2023-04-24T08:19:44;27.27;;;14.48;;
60006;SDS011;45863;50.336;3.536;2023-04-24T08:22:13;23.50;;;14.32;;
60006;SDS011;45863;50.336;3.536;2023-04-24T08:24:38;25.63;;;15.25;;
60006;SDS011;45863;50.336;3.536;2023-04-24T08:27:03;24.38;;;13.95;;
60006;SDS011;45863;50.336;3.536;2023-04-24T08:29:29;25.30;;;14.70;;
60006;SDS011;45863;50.336;3.536;2023-04-24T08:31:54;26.50;;;15.23;;
60006;SDS011;45863;50.336;3.536;2023-04-24T08:34:20;23.90;;;13.30;;
60006;SDS011;45863;50.336;3.536;2023-04-24T08:36:45;25.05;;;13.27;;
60006;SDS011;45863;50.336;3.536;2023-04-24T08:39:10;28.33;;;16.20;;
60006;SDS011;45863;50.336;3.536;2023-04-24T08:41:35;25.20;;;14.87;;
60006;SDS011;45863;50.336;3.536;2023-04-24T08:44:03;28.67;;;14.48;;
60006;SDS011;45863;50.336;3.536;2023-04-24T08:46:28;26.00;;;15.10;;
60006;SDS011;45863;50.336;3.536;2023-04-24T08:48:54;23.30;;;13.80;;
60006;SDS011;45863;50.336;3.536;2023-04-24T08:51:20;28.00;;;13.90;;
60006;SDS011;45863;50.336;3.536;2023-04-24T08:53:45;27.05;;;14.30;;
60006;SDS011;45863;50.336;3.536;2023-04-24T08:56:11;24.42;;;14.73;;
60006;SDS011;45863;50.336;3.536;2023-04-24T08:58:36;24.55;;;12.98;;
60006;SDS011;45863;50.336;3.536;2023-04-24T09:01:02;21.75;;;11.48;;
60006;SDS011;45863;50.336;3.536;2023-04-24T09:03:28;20.38;;;12.82;;
60006;SDS011;45863;50.336;3.536;2023-04-24T09:05:53;22.08;;;12.48;;
60006;SDS011;45863;50.336;3.536;2023-04-24T09:08:20;22.92;;;13.15;;
60006;SDS011;45863;50.336;3.536;2023-04-24T09:10:48;24.90;;;14.02;;
60006;SDS011;45863;50.336;3.536;2023-04-24T09:13:13;26.55;;;14.32;;
60006;SDS011;45863;50.336;3.536;2023-04-24T09:15:39;24.10;;;13.93;;
60006;SDS011;45863;50.336;3.536;2023-04-24T09:18:05;24.70;;;15.80;;
60006;SDS011;45863;50.336;3.536;2023-04-24T09:20:31;25.45;;;14.65;;
60006;SDS011;45863;50.336;3.536;2023-04-24T09:22:56;27.52;;;15.18;;
60006;SDS011;45863;50.336;3.536;2023-04-24T09:25:22;24.58;;;15.15;;
60006;SDS011;45863;50.336;3.536;2023-04-24T09:27:47;22.30;;;14.25;;
60006;SDS011;45863;50.336;3.536;2023-04-24T09:30:12;21.70;;;13.80;;
60006;SDS011;45863;50.336;3.536;2023-04-24T09:32:38;23.60;;;14.00;;
60006;SDS011;45863;50.336;3.536;2023-04-24T09:35:07;24.13;;;13.25;;
60006;SDS011;45863;50.336;3.536;2023-04-24T09:37:36;21.13;;;12.70;;
60006;SDS011;45863;50.336;3.536;2023-04-24T09:42:43;21.13;;;13.10;;
60006;SDS011;45863;50.336;3.536;2023-04-24T09:45:09;26.13;;;13.25;;
60006;SDS011;45863;50.336;3.536;2023-04-24T09:47:36;23.42;;;12.48;;
60006;SDS011;45863;50.336;3.536;2023-04-24T09:50:08;17.42;;;11.90;;
60006;SDS011;45863;50.336;3.536;2023-04-24T09:52:34;20.02;;;11.27;;
60006;SDS011;45863;50.336;3.536;2023-04-24T09:54:59;17.83;;;11.40;;
60006;SDS011;45863;50.336;3.536;2023-04-24T09:57:24;18.47;;;11.63;;
60006;SDS011;45863;50.336;3.536;2023-04-24T09:59:49;16.23;;;11.30;;
60006;SDS011;45863;50.336;3.536;2023-04-24T10:02:18;17.77;;;10.95;;
60006;SDS011;45863;50.336;3.536;2023-04-24T10:04:53;13.88;;;8.85;;
60006;SDS011;45863;50.336;3.536;2023-04-24T10:07:19;13.73;;;9.85;;
60006;SDS011;45863;50.336;3.536;2023-04-24T10:09:45;17.10;;;11.13;;
60006;SDS011;45863;50.336;3.536;2023-04-24T10:12:10;17.08;;;10.07;;
60006;SDS011;45863;50.336;3.536;2023-04-24T10:14:35;15.75;;;10.43;;
60006;SDS011;45863;50.336;3.536;2023-04-24T10:17:01;17.40;;;10.38;;
60006;SDS011;45863;50.336;3.536;2023-04-24T10:19:27;17.27;;;10.68;;
60006;SDS011;45863;50.336;3.536;2023-04-24T10:21:54;16.35;;;10.77;;
60006;SDS011;45863;50.336;3.536;2023-04-24T10:24:21;15.77;;;10.23;;
60006;SDS011;45863;50.336;3.536;2023-04-24T10:26:46;19.10;;;10.95;;
60006;SDS011;45863;50.336;3.536;2023-04-24T10:29:16;16.13;;;10.80;;
60006;SDS011;45863;50.336;3.536;2023-04-24T10:31:42;16.92;;;11.35;;
60006;SDS011;45863;50.336;3.536;2023-04-24T10:34:10;15.88;;;10.73;;
60006;SDS011;45863;50.336;3.536;2023-04-24T10:36:36;14.93;;;10.98;;
60006;SDS011;45863;50.336;3.536;2023-04-24T10:39:03;17.23;;;11.27;;
60006;SDS011;45863;50.336;3.536;2023-04-24T10:41:31;19.98;;;11.02;;
60006;SDS011;45863;50.336;3.536;2023-04-24T10:44:09;19.17;;;12.25;;
60006;SDS011;45863;50.336;3.536;2023-04-24T10:46:37;15.88;;;11.65;;
60006;SDS011;45863;50.336;3.536;2023-04-24T10:49:03;19.33;;;11.57;;
60006;SDS011;45863;50.336;3.536;2023-04-24T10:51:45;23.08;;;13.00;;
60006;SDS011;45863;50.336;3.536;2023-04-24T10:54:28;21.13;;;12.50;;
60006;SDS011;45863;50.336;3.536;2023-04-24T10:56:53;17.60;;;12.50;;
60006;SDS011;45863;50.336;3.536;2023-04-24T10:59:38;17.40;;;11.82;;
60006;SDS011;45863;50.336;3.536;2023-04-24T11:02:03;17.83;;;11.75;;
60006;SDS011;45863;50.336;3.536;2023-04-24T11:04:32;18.00;;;10.68;;
60006;SDS011;45863;50.336;3.536;2023-04-24T11:06:57;16.58;;;11.57;;
60006;SDS011;45863;50.336;3.536;2023-04-24T11:09:23;17.83;;;11.70;;
60006;SDS011;45863;50.336;3.536;2023-04-24T11:11:51;21.27;;;12.50;;
60006;SDS011;45863;50.336;3.536;2023-04-24T11:14:27;20.10;;;13.45;;
60006;SDS011;45863;50.336;3.536;2023-04-24T11:16:53;21.55;;;13.48;;
60006;SDS011;45863;50.336;3.536;2023-04-24T11:19:23;41.47;;;17.35;;
60006;SDS011;45863;50.336;3.536;2023-04-24T11:21:59;31.27;;;17.52;;
60006;SDS011;45863;50.336;3.536;2023-04-24T11:24:29;29.00;;;15.25;;
60006;SDS011;45863;50.336;3.536;2023-04-24T11:26:55;27.20;;;17.00;;
60006;SDS011;45863;50.336;3.536;2023-04-24T11:29:21;27.92;;;16.98;;
60006;SDS011;45863;50.336;3.536;2023-04-24T11:31:47;28.77;;;16.85;;
60006;SDS011;45863;50.336;3.536;2023-04-24T11:34:16;26.40;;;15.80;;
60006;SDS011;45863;50.336;3.536;2023-04-24T11:36:42;25.98;;;15.43;;
60006;SDS011;45863;50.336;3.536;2023-04-24T11:39:07;22.33;;;14.63;;
60006;SDS011;45863;50.336;3.536;2023-04-24T11:41:33;19.05;;;12.20;;
60006;SDS011;45863;50.336;3.536;2023-04-24T11:43:58;18.10;;;12.27;;
60006;SDS011;45863;50.336;3.536;2023-04-24T11:46:27;16.55;;;9.75;;
60006;SDS011;45863;50.336;3.536;2023-04-24T11:48:53;19.23;;;10.18;;
60006;SDS011;45863;50.336;3.536;2023-04-24T11:51:18;14.87;;;10.00;;
60006;SDS011;45863;50.336;3.536;2023-04-24T11:53:44;24.23;;;11.20;;
60006;SDS011;45863;50.336;3.536;2023-04-24T11:56:09;15.52;;;10.70;;
60006;SDS011;45863;50.336;3.536;2023-04-24T11:58:35;16.65;;;11.35;;
60006;SDS011;45863;50.336;3.536;2023-04-24T12:01:00;16.15;;;11.90;;
60006;SDS011;45863;50.336;3.536;2023-04-24T12:03:26;17.50;;;11.45;;
60006;SDS011;45863;50.336;3.536;2023-04-24T12:05:51;17.02;;;11.90;;
60006;SDS011;45863;50.336;3.536;2023-04-24T12:08:29;17.70;;;12.23;;
60006;SDS011;45863;50.336;3.536;2023-04-24T12:10:54;18.17;;;13.90;;
60006;SDS011;45863;50.336;3.536;2023-04-24T12:13:19;19.83;;;14.07;;
60006;SDS011;45863;50.336;3.536;2023-04-24T12:15:45;22.35;;;15.07;;
60006;SDS011;45863;50.336;3.536;2023-04-24T12:18:13;23.00;;;15.45;;
60006;SDS011;45863;50.336;3.536;2023-04-24T12:20:40;23.08;;;15.52;;
60006;SDS011;45863;50.336;3.536;2023-04-24T12:23:05;21.13;;;13.63;;
60006;SDS011;45863;50.336;3.536;2023-04-24T12:25:31;23.08;;;16.10;;
60006;SDS011;45863;50.336;3.536;2023-04-24T12:30:28;23.77;;;16.20;;
60006;SDS011;45863;50.336;3.536;2023-04-24T12:32:54;20.73;;;13.73;;
60006;SDS011;45863;50.336;3.536;2023-04-24T12:35:22;17.13;;;11.10;;
60006;SDS011;45863;50.336;3.536;2023-04-24T12:37:47;13.35;;;8.80;;
60006;SDS011;45863;50.336;3.536;2023-04-24T12:40:13;12.02;;;8.23;;
60006;SDS011;45863;50.336;3.536;2023-04-24T12:42:48;13.65;;;8.80;;
60006;SDS011;45863;50.336;3.536;2023-04-24T12:45:14;14.55;;;9.40;;
60006;SDS011;45863;50.336;3.536;2023-04-24T12:47:40;12.20;;;9.07;;
60006;SDS011;45863;50.336;3.536;2023-04-24T12:50:09;14.98;;;10.63;;
60006;SDS011;45863;50.336;3.536;2023-04-24T12:52:35;14.70;;;10.40;;
60006;SDS011;45863;50.336;3.536;2023-04-24T12:55:00;14.02;;;10.18;;
60006;SDS011;45863;50.336;3.536;2023-04-24T12:57:26;15.18;;;9.60;;
60006;SDS011;45863;50.336;3.536;2023-04-24T12:59:53;14.00;;;8.93;;
60006;SDS011;45863;50.336;3.536;2023-04-24T13:02:18;14.18;;;9.18;;
60006;SDS011;45863;50.336;3.536;2023-04-24T13:04:46;14.10;;;9.93;;
60006;SDS011;45863;50.336;3.536;2023-04-24T13:07:12;13.88;;;9.98;;
60006;SDS011;45863;50.336;3.536;2023-04-24T13:09:38;12.88;;;9.52;;
60006;SDS011;45863;50.336;3.536;2023-04-24T13:12:04;15.85;;;11.25;;
60006;SDS011;45863;50.336;3.536;2023-04-24T13:14:30;13.65;;;10.50;;
60006;SDS011;45863;50.336;3.536;2023-04-24T13:16:55;14.60;;;11.02;;
60006;SDS011;45863;50.336;3.536;2023-04-24T13:19:21;16.47;;;11.10;;
60006;SDS011;45863;50.336;3.536;2023-04-24T13:21:46;15.70;;;11.25;;
60006;SDS011;45863;50.336;3.536;2023-04-24T13:24:11;11.43;;;8.82;;
60006;SDS011;45863;50.336;3.536;2023-04-24T13:26:37;12.60;;;9.00;;
60006;SDS011;45863;50.336;3.536;2023-04-24T13:29:03;11.77;;;8.53;;
60006;SDS011;45863;50.336;3.536;2023-04-24T13:31:28;11.75;;;8.73;;
60006;SDS011;45863;50.336;3.536;2023-04-24T13:33:53;13.98;;;8.95;;
60006;SDS011;45863;50.336;3.536;2023-04-24T13:36:19;11.43;;;8.07;;
60006;SDS011;45863;50.336;3.536;2023-04-24T13:38:44;11.63;;;9.27;;
60006;SDS011;45863;50.336;3.536;2023-04-24T13:41:09;15.27;;;8.63;;
60006;SDS011;45863;50.336;3.536;2023-04-24T13:43:35;14.25;;;8.90;;
60006;SDS011;45863;50.336;3.536;2023-04-24T13:46:00;12.73;;;8.55;;
60006;SDS011;45863;50.336;3.536;2023-04-24T13:48:27;13.48;;;9.63;;
60006;SDS011;45863;50.336;3.536;2023-04-24T13:50:53;11.85;;;9.57;;
60006;SDS011;45863;50.336;3.536;2023-04-24T13:53:18;13.05;;;9.13;;
60006;SDS011;45863;50.336;3.536;2023-04-24T13:55:43;14.87;;;9.97;;
60006;SDS011;45863;50.336;3.536;2023-04-24T13:58:09;15.90;;;10.33;;
60006;SDS011;45863;50.336;3.536;2023-04-24T14:00:34;15.07;;;10.13;;
60006;SDS011;45863;50.336;3.536;2023-04-24T14:02:59;14.77;;;10.00;;
60006;SDS011;45863;50.336;3.536;2023-04-24T14:05:24;16.00;;;9.87;;
60006;SDS011;45863;50.336;3.536;2023-04-24T14:07:50;16.23;;;10.82;;
60006;SDS011;45863;50.336;3.536;2023-04-24T14:10:15;15.07;;;10.98;;
60006;SDS011;45863;50.336;3.536;2023-04-24T14:12:41;13.63;;;10.32;;
60006;SDS011;45863;50.336;3.536;2023-04-24T14:15:06;12.93;;;10.13;;
60006;SDS011;45863;50.336;3.536;2023-04-24T14:17:32;15.77;;;10.25;;
60006;SDS011;45863;50.336;3.536;2023-04-24T14:19:57;15.60;;;10.68;;
60006;SDS011;45863;50.336;3.536;2023-04-24T14:22:24;15.35;;;10.85;;